EFLP

Lappeenranta Airport

Lappeenranta, Finland
METAR EFLP 151320Z AUTO 10004KT 060V150 2800 -SN OVC004 M01/M02 Q0992
Observed Flight Rules
Dec-15 @ 13:20 UTC (50 minutes ago) Instrument Flight Rules
Wind Visibility Clouds Conditions
100° at 4 knots 2,800 meters
  • Overcast at 400' AGL
  • Light Snow
Temperatures Readings
Current -1°C / 30°F
Dewpoint -2°C / 28°F
Humidity 93%
Altimeter 29.29" Hg
Pressure 992 hPa
Elevation 106
METAR EFLP 151320Z AUTO 10004KT 060V150 2800 -SN OVC004 M01/M02 Q0992
Observed Flight Rules
Dec-15 @ 13:20 UTC
(50 minutes ago)
LIFR
Wind Visibility
100° at 4 knots 2,800 meters
Clouds
  • Overcast at 400' AGL
Conditions
  • Light Snow
Temperature Dewpoint
-1°C / 30°F -2°C / 28°F
Humidity Altimeter Pressure
93% 29.29" Hg 992 hPa